createdAt,value
2019-02-17T00:01:32.012Z,101777.14
2019-02-17T00:04:02.572Z,101768.73
2019-02-17T00:06:33.073Z,101771.41
2019-02-17T00:09:04.930Z,101768.91
2019-02-17T00:11:35.361Z,101768.75
2019-02-17T00:14:05.781Z,101765.73
2019-02-17T00:16:36.214Z,101765.06
2019-02-17T00:19:06.621Z,101768.42
2019-02-17T00:21:37.175Z,101772.16
2019-02-17T00:24:07.710Z,101772.47
2019-02-17T00:26:38.238Z,101766.42
2019-02-17T00:29:08.656Z,101769.30
2019-02-17T00:31:39.298Z,101773.16
2019-02-17T00:34:09.773Z,101771.48
2019-02-17T00:36:40.217Z,101776.18
2019-02-17T00:39:10.779Z,101774.18
2019-02-17T00:41:41.180Z,101772.84
2019-02-17T00:44:11.643Z,101773.50
2019-02-17T00:46:42.039Z,101769.45
2019-02-17T00:49:12.440Z,101771.66
2019-02-17T00:51:43.775Z,101767.45
2019-02-17T00:54:14.478Z,101773.84
2019-02-17T00:56:44.912Z,101760.38
2019-02-17T00:59:15.397Z,101767.77
2019-02-17T01:01:45.865Z,101771.83
2019-02-17T01:04:16.295Z,101763.91
2019-02-17T01:06:46.727Z,101767.61
2019-02-17T01:09:17.258Z,101761.56
2019-02-17T01:11:47.789Z,101770.83
2019-02-17T01:14:18.189Z,101758.84
2019-02-17T01:16:48.592Z,101764.08
2019-02-17T01:19:19.073Z,101764.08
2019-02-17T01:21:49.495Z,101760.05
2019-02-17T01:24:19.925Z,101762.72
2019-02-17T01:26:50.321Z,101762.72
2019-02-17T01:29:20.990Z,101763.72
2019-02-17T01:31:51.518Z,101762.19
2019-02-17T01:34:21.917Z,101770.47
2019-02-17T01:36:52.369Z,101770.13
2019-02-17T01:39:22.804Z,101775.35
2019-02-17T01:41:53.233Z,101765.90
2019-02-17T01:44:23.651Z,101774.31
2019-02-17T01:46:54.085Z,101768.41
2019-02-17T01:49:24.485Z,101770.12
2019-02-17T01:51:54.935Z,101768.58
2019-02-17T01:54:25.486Z,101780.56
2019-02-17T01:56:55.905Z,101782.26
2019-02-17T01:59:30.645Z,101788.66
2019-02-17T02:01:58.430Z,101787.98
2019-02-17T02:04:29.123Z,101782.95
2019-02-17T02:06:59.963Z,101776.52
2019-02-17T02:09:30.393Z,101788.50
2019-02-17T02:12:00.786Z,101778.55
2019-02-17T02:14:31.361Z,101773.83
2019-02-17T02:17:01.777Z,101783.60
2019-02-17T02:19:32.209Z,101782.94
2019-02-17T02:22:04.066Z,101786.45
2019-02-17T02:24:34.503Z,101780.91
2019-02-17T02:27:05.031Z,101787.31
2019-02-17T02:29:41.058Z,101783.93
2019-02-17T02:32:07.626Z,101787.31
2019-02-17T02:34:38.058Z,101786.96
2019-02-17T02:37:08.483Z,101780.25
2019-02-17T02:39:39.010Z,101779.57
2019-02-17T02:42:11.291Z,101786.14
2019-02-17T02:44:41.721Z,101789.00
2019-02-17T02:47:12.246Z,101795.71
2019-02-17T02:49:42.783Z,101793.02
2019-02-17T02:52:13.308Z,101790.98
2019-02-17T02:54:43.729Z,101789.97
2019-02-17T02:57:14.161Z,101795.69
2019-02-17T02:59:52.213Z,101791.98
2019-02-17T03:02:16.854Z,101791.98
2019-02-17T03:04:47.287Z,101797.04
2019-02-17T03:07:17.721Z,101794.31
2019-02-17T03:09:48.252Z,101801.73
2019-02-17T03:12:18.673Z,101799.86
2019-02-17T03:14:49.087Z,101801.55
2019-02-17T03:17:19.731Z,101801.70
2019-02-17T03:19:50.374Z,101792.08
2019-02-17T03:22:21.311Z,101803.34
2019-02-17T03:24:51.741Z,101804.36
2019-02-17T03:27:22.272Z,101809.37
2019-02-17T03:30:04.146Z,101811.05
2019-02-17T03:32:25.066Z,101806.19
2019-02-17T03:34:56.110Z,101811.73
2019-02-17T03:37:26.544Z,101817.12
2019-02-17T03:39:56.970Z,101816.95
2019-02-17T03:42:27.423Z,101823.00
2019-02-17T03:44:57.929Z,101811.05
2019-02-17T03:47:28.554Z,101824.18
2019-02-17T03:49:59.600Z,101818.62
2019-02-17T03:52:30.036Z,101811.20
2019-02-17T03:55:00.454Z,101823.48
2019-02-17T03:57:30.857Z,101820.13
2019-02-17T04:00:01.417Z,101829.23
2019-02-17T04:02:32.051Z,101833.23
2019-02-17T04:05:02.575Z,101831.39
2019-02-17T04:07:34.239Z,101832.20
2019-02-17T04:10:05.251Z,101836.24
2019-02-17T04:12:35.703Z,101830.86
2019-02-17T04:15:07.110Z,101837.91
2019-02-17T04:17:37.588Z,101830.53
2019-02-17T04:20:08.522Z,101824.17
2019-02-17T04:22:39.058Z,101824.83
2019-02-17T04:25:09.445Z,101821.12
2019-02-17T04:27:40.229Z,101827.08
2019-02-17T04:30:10.863Z,101832.63
2019-02-17T04:32:41.291Z,101830.59
2019-02-17T04:35:11.710Z,101835.97
2019-02-17T04:37:42.142Z,101832.09
2019-02-17T04:40:12.539Z,101823.20
2019-02-17T04:42:43.001Z,101819.66
2019-02-17T04:45:13.422Z,101826.70
2019-02-17T04:47:43.855Z,101822.47
2019-02-17T04:50:14.278Z,101826.34
2019-02-17T04:52:44.709Z,101827.03
2019-02-17T04:55:15.109Z,101827.52
2019-02-17T04:57:45.562Z,101830.91
2019-02-17T05:00:15.993Z,101826.50
2019-02-17T05:02:46.428Z,101826.83
2019-02-17T05:05:16.844Z,101833.06
2019-02-17T05:07:51.146Z,101842.65
2019-02-17T05:10:21.594Z,101836.77
2019-02-17T05:12:52.024Z,101836.78
2019-02-17T05:15:22.461Z,101840.80
2019-02-17T05:17:52.879Z,101835.59
2019-02-17T05:20:23.314Z,101825.48
2019-02-17T05:22:53.743Z,101835.43
2019-02-17T05:25:24.162Z,101844.20
2019-02-17T05:27:54.553Z,101840.32
2019-02-17T05:30:25.030Z,101847.37
2019-02-17T05:32:55.429Z,101848.73
2019-02-17T05:35:25.883Z,101849.42
2019-02-17T05:37:56.410Z,101847.76
2019-02-17T05:40:26.843Z,101852.98
2019-02-17T05:42:57.262Z,101844.74
2019-02-17T05:45:27.692Z,101845.06
2019-02-17T05:47:58.093Z,101845.38
2019-02-17T05:50:29.061Z,101842.65
2019-02-17T05:52:59.704Z,101856.11
2019-02-17T05:55:31.142Z,101857.45
2019-02-17T05:58:01.582Z,101863.15
2019-02-17T06:00:32.622Z,101864.83
2019-02-17T06:03:03.043Z,101870.53
2019-02-17T06:05:33.473Z,101868.04
2019-02-17T06:08:03.932Z,101872.41
2019-02-17T06:10:34.444Z,101873.44
2019-02-17T06:13:04.858Z,101879.45
2019-02-17T06:15:35.257Z,101883.66
2019-02-17T06:18:05.722Z,101884.83
2019-02-17T06:20:36.142Z,101885.31
2019-02-17T06:23:06.541Z,101896.77
2019-02-17T06:25:37.040Z,101898.27
2019-02-17T06:28:07.427Z,101899.47
2019-02-17T06:30:37.857Z,101894.59
2019-02-17T06:33:08.291Z,101894.64
2019-02-17T06:35:38.712Z,101891.14
2019-02-17T06:38:09.110Z,101894.49
2019-02-17T06:40:39.673Z,101893.37
2019-02-17T06:43:10.109Z,101892.56
2019-02-17T06:45:40.528Z,101896.66
2019-02-17T06:48:10.958Z,101888.29
2019-02-17T06:50:41.394Z,101890.36
2019-02-17T06:53:11.799Z,101889.38
2019-02-17T06:55:46.954Z,101892.75
2019-02-17T06:58:23.526Z,101901.22
2019-02-17T07:00:54.097Z,101900.57
2019-02-17T07:03:24.594Z,101905.28
2019-02-17T07:05:56.872Z,101897.52
2019-02-17T07:08:27.339Z,101903.59
2019-02-17T07:10:57.816Z,101914.23
2019-02-17T07:13:28.248Z,101913.69
2019-02-17T07:15:58.775Z,101912.00
2019-02-17T07:18:29.207Z,101914.17
2019-02-17T07:20:59.627Z,101921.92
2019-02-17T07:23:30.063Z,101914.97
2019-02-17T07:26:00.498Z,101917.95
2019-02-17T07:28:31.222Z,101920.92
2019-02-17T07:31:03.189Z,101918.16
2019-02-17T07:33:33.626Z,101919.42
2019-02-17T07:36:04.154Z,101913.59
2019-02-17T07:38:34.683Z,101917.94
2019-02-17T07:41:05.103Z,101920.78
2019-02-17T07:43:37.477Z,101923.55
2019-02-17T07:46:08.011Z,101925.39
2019-02-17T07:48:38.437Z,101929.19
2019-02-17T07:51:08.840Z,101924.94
2019-02-17T07:53:40.427Z,101928.09
2019-02-17T07:56:10.954Z,101928.09
2019-02-17T07:58:41.385Z,101926.59
2019-02-17T08:01:11.916Z,101923.33
2019-02-17T08:03:42.335Z,101922.05
2019-02-17T08:06:12.724Z,101917.55
2019-02-17T08:08:43.165Z,101920.27
2019-02-17T08:11:13.621Z,101923.70
2019-02-17T08:13:44.052Z,101919.50
2019-02-17T08:16:14.484Z,101925.15
2019-02-17T08:18:45.013Z,101918.60
2019-02-17T08:21:15.546Z,101919.08
2019-02-17T08:23:45.964Z,101910.19
2019-02-17T08:26:16.399Z,101910.21
2019-02-17T08:28:46.845Z,101908.66
2019-02-17T08:31:17.251Z,101914.34
2019-02-17T08:33:47.780Z,101913.64
2019-02-17T08:36:18.215Z,101912.32
2019-02-17T08:38:48.742Z,101910.19
2019-02-17T08:41:19.176Z,101913.18
2019-02-17T08:43:49.706Z,101913.65
2019-02-17T08:46:20.109Z,101908.91
2019-02-17T08:48:50.558Z,101900.16
2019-02-17T08:51:20.990Z,101904.28
2019-02-17T08:53:51.411Z,101899.59
2019-02-17T08:56:21.841Z,101904.17
2019-02-17T08:58:52.278Z,101902.16
2019-02-17T09:01:22.696Z,101898.09
2019-02-17T09:03:53.126Z,101899.90
2019-02-17T09:06:23.560Z,101900.42
2019-02-17T09:08:53.981Z,101888.98
2019-02-17T09:11:24.414Z,101891.37
2019-02-17T09:13:54.943Z,101894.75
2019-02-17T09:16:25.375Z,101895.66
2019-02-17T09:18:55.793Z,101902.74
2019-02-17T09:21:26.226Z,101898.08
2019-02-17T09:23:56.660Z,101901.58
2019-02-17T09:26:27.081Z,101897.72
2019-02-17T09:28:57.512Z,101901.50
2019-02-17T09:31:27.945Z,101899.83
2019-02-17T09:33:58.474Z,101905.19
2019-02-17T09:36:28.892Z,101913.06
2019-02-17T09:38:59.425Z,101909.00
2019-02-17T09:41:30.066Z,101907.45
2019-02-17T09:44:00.466Z,101914.37
2019-02-17T09:46:30.917Z,101915.92
2019-02-17T09:49:01.351Z,101916.15
2019-02-17T09:51:31.880Z,101916.47
2019-02-17T09:54:02.302Z,101920.47
2019-02-17T09:56:32.734Z,101914.69
2019-02-17T09:59:03.168Z,101919.08
2019-02-17T10:01:33.587Z,101924.11
2019-02-17T10:04:04.018Z,101918.11
2019-02-17T10:06:34.546Z,101917.47
2019-02-17T10:09:05.906Z,101919.44
2019-02-17T10:11:36.322Z,101916.28
2019-02-17T10:14:06.882Z,101919.73
2019-02-17T10:16:37.384Z,101912.34
2019-02-17T10:19:07.816Z,101911.55
2019-02-17T10:21:38.248Z,101915.11
2019-02-17T10:24:08.666Z,101904.75
2019-02-17T10:26:39.100Z,101911.66
2019-02-17T10:29:09.497Z,101905.68
2019-02-17T10:31:39.896Z,101907.10
2019-02-17T10:34:10.384Z,101909.86
2019-02-17T10:36:40.916Z,101908.88
2019-02-17T10:39:11.348Z,101896.62
2019-02-17T10:41:41.881Z,101906.62
2019-02-17T10:44:12.287Z,101893.56
2019-02-17T10:46:42.731Z,101903.56
2019-02-17T10:49:13.361Z,101897.54
2019-02-17T10:51:43.796Z,101901.02
2019-02-17T10:54:14.225Z,101904.44
2019-02-17T10:56:44.757Z,101904.45
2019-02-17T10:59:15.197Z,101899.85
2019-02-17T11:01:45.707Z,101895.21
2019-02-17T11:04:16.233Z,101889.00
2019-02-17T11:06:46.667Z,101882.91
2019-02-17T11:09:18.735Z,101884.89
2019-02-17T11:11:49.168Z,101874.98
2019-02-17T11:14:19.591Z,101878.81
2019-02-17T11:16:50.116Z,101873.78
2019-02-17T11:19:20.648Z,101871.05
2019-02-17T11:21:51.082Z,101860.47
2019-02-17T11:24:21.511Z,101861.83
2019-02-17T11:26:52.041Z,101863.56
2019-02-17T11:29:22.679Z,101865.09
2019-02-17T11:31:53.104Z,101861.08
2019-02-17T11:34:23.508Z,101864.13
2019-02-17T11:36:54.052Z,101861.61
2019-02-17T11:39:24.586Z,101859.89
2019-02-17T11:41:55.016Z,101858.18
2019-02-17T11:44:25.548Z,101863.02
2019-02-17T11:46:55.977Z,101860.95
2019-02-17T11:49:26.385Z,101857.39
2019-02-17T11:51:56.830Z,101857.55
2019-02-17T11:54:27.239Z,101851.83
2019-02-17T11:56:57.683Z,101849.23
2019-02-17T11:59:28.091Z,101853.06
2019-02-17T12:01:58.550Z,101854.11
2019-02-17T12:04:29.077Z,101857.23
2019-02-17T12:07:00.332Z,101859.88
2019-02-17T12:09:30.788Z,101851.09
2019-02-17T12:12:01.177Z,101851.05
2019-02-17T12:14:32.681Z,101852.36
2019-02-17T12:17:03.082Z,101853.17
2019-02-17T12:19:33.588Z,101849.25
2019-02-17T12:22:05.751Z,101849.15
2019-02-17T12:24:38.128Z,101843.06
2019-02-17T12:27:13.068Z,101853.74
2019-02-17T12:29:48.125Z,101842.44
2019-02-17T12:32:20.163Z,101839.22
2019-02-17T12:34:50.563Z,101836.10
2019-02-17T12:37:21.027Z,101836.58
2019-02-17T12:39:51.560Z,101835.02
2019-02-17T12:42:21.978Z,101834.45
2019-02-17T12:44:52.378Z,101835.53
2019-02-17T12:47:22.841Z,101827.03
2019-02-17T12:49:53.261Z,101830.01
2019-02-17T12:52:23.695Z,101820.22
2019-02-17T12:54:54.127Z,101816.95
2019-02-17T12:57:24.527Z,101819.45
2019-02-17T12:59:54.926Z,101819.08
2019-02-17T13:02:25.509Z,101819.98
2019-02-17T13:04:55.917Z,101813.69
2019-02-17T13:07:26.361Z,101814.92
2019-02-17T13:09:56.793Z,101818.98
2019-02-17T13:12:27.225Z,101809.34
2019-02-17T13:14:57.645Z,101808.02
2019-02-17T13:17:28.182Z,101807.83
2019-02-17T13:19:58.611Z,101809.67
2019-02-17T13:22:29.051Z,101801.41
2019-02-17T13:24:59.528Z,101803.44
2019-02-17T13:27:30.237Z,101796.73
2019-02-17T13:30:00.634Z,101795.20
2019-02-17T13:32:31.165Z,101798.77
2019-02-17T13:35:01.585Z,101795.02
2019-02-17T13:37:32.114Z,101798.19
2019-02-17T13:40:02.548Z,101797.62
2019-02-17T13:42:32.978Z,101801.03
2019-02-17T13:45:03.706Z,101795.39
2019-02-17T13:47:34.142Z,101790.38
2019-02-17T13:50:06.510Z,101793.83
2019-02-17T13:52:36.944Z,101785.63
2019-02-17T13:55:08.023Z,101779.75
2019-02-17T13:57:38.507Z,101782.83
2019-02-17T14:00:17.027Z,101777.81
2019-02-17T14:02:47.460Z,101775.60
2019-02-17T14:05:17.991Z,101785.56
2019-02-17T14:07:48.420Z,101786.09
2019-02-17T14:10:18.954Z,101779.95
2019-02-17T14:12:49.484Z,101779.60
2019-02-17T14:15:20.628Z,101774.12
2019-02-17T14:17:51.049Z,101773.69
2019-02-17T14:20:21.453Z,101765.70
2019-02-17T14:22:51.913Z,101769.88
2019-02-17T14:25:22.443Z,101776.95
2019-02-17T14:27:52.977Z,101773.97
2019-02-17T14:30:23.502Z,101770.07
2019-02-17T14:32:53.927Z,101763.98
2019-02-17T14:35:25.294Z,101771.81
2019-02-17T14:37:55.807Z,101766.57
2019-02-17T14:40:26.549Z,101760.71
2019-02-17T14:42:57.079Z,101764.36
2019-02-17T14:45:27.502Z,101760.77
2019-02-17T14:47:58.030Z,101762.37
2019-02-17T14:50:28.439Z,101764.88
2019-02-17T14:52:58.894Z,101760.95
2019-02-17T14:55:29.425Z,101758.87
2019-02-17T14:58:05.409Z,101753.78
2019-02-17T15:00:32.025Z,101755.27
2019-02-17T15:03:02.550Z,101755.32
2019-02-17T15:05:33.081Z,101753.57
2019-02-17T15:08:03.613Z,101754.06
2019-02-17T15:10:34.056Z,101752.25
2019-02-17T15:13:04.679Z,101755.86
2019-02-17T15:15:35.162Z,101751.99
2019-02-17T15:18:05.634Z,101750.33
2019-02-17T15:20:36.270Z,101752.00
2019-02-17T15:23:06.796Z,101745.63
2019-02-17T15:25:37.338Z,101743.06
2019-02-17T15:28:07.958Z,101742.61
2019-02-17T15:30:38.389Z,101749.61
2019-02-17T15:33:08.806Z,101747.45
2019-02-17T15:35:39.239Z,101742.67
2019-02-17T15:38:09.671Z,101736.44
2019-02-17T15:40:40.093Z,101740.38
2019-02-17T15:43:10.622Z,101742.88
2019-02-17T15:45:42.182Z,101745.59
2019-02-17T15:48:13.739Z,101744.50
2019-02-17T15:50:44.265Z,101745.07
2019-02-17T15:53:14.796Z,101744.53
2019-02-17T15:55:45.263Z,101746.09
2019-02-17T15:58:15.759Z,101737.27
2019-02-17T16:00:46.176Z,101737.98
2019-02-17T16:03:16.711Z,101745.39
2019-02-17T16:05:47.140Z,101739.27
2019-02-17T16:08:17.672Z,101737.22
2019-02-17T16:10:48.105Z,101736.25
2019-02-17T16:13:18.633Z,101740.28
2019-02-17T16:15:49.091Z,101734.48
2019-02-17T16:18:19.526Z,101735.48
2019-02-17T16:20:50.021Z,101748.72
2019-02-17T16:23:20.547Z,101744.17
2019-02-17T16:25:51.177Z,101742.92
2019-02-17T16:28:21.608Z,101750.38
2019-02-17T16:30:52.017Z,101749.70
2019-02-17T16:33:22.440Z,101757.88
2019-02-17T16:35:52.890Z,101749.40
2019-02-17T16:38:23.422Z,101753.94
2019-02-17T16:40:53.957Z,101754.77
2019-02-17T16:43:24.384Z,101761.27
2019-02-17T16:45:54.914Z,101759.08
2019-02-17T16:48:25.336Z,101756.76
2019-02-17T16:50:55.768Z,101761.58
2019-02-17T16:53:26.199Z,101759.80
2019-02-17T16:55:56.730Z,101758.80
2019-02-17T16:58:27.263Z,101763.09
2019-02-17T17:00:57.792Z,101768.30
2019-02-17T17:03:28.325Z,101767.12
2019-02-17T17:05:58.741Z,101765.66
2019-02-17T17:08:29.272Z,101768.34
2019-02-17T17:10:59.800Z,101768.00
2019-02-17T17:13:30.235Z,101768.27
2019-02-17T17:16:00.767Z,101766.05
2019-02-17T17:18:31.227Z,101764.96
2019-02-17T17:21:01.731Z,101765.31
2019-02-17T17:23:32.131Z,101770.19
2019-02-17T17:26:02.580Z,101763.39
2019-02-17T17:28:33.111Z,101765.56
2019-02-17T17:31:03.643Z,101764.85
2019-02-17T17:33:34.057Z,101763.13
2019-02-17T17:36:04.493Z,101761.78
2019-02-17T17:38:34.926Z,101760.36
2019-02-17T17:41:05.457Z,101762.71
2019-02-17T17:43:37.415Z,101753.02
2019-02-17T17:46:07.958Z,101756.97
2019-02-17T17:48:38.486Z,101751.39
2019-02-17T17:51:09.015Z,101756.41
2019-02-17T17:53:39.596Z,101757.19
2019-02-17T17:56:10.077Z,101756.34
2019-02-17T17:58:40.500Z,101758.56
2019-02-17T18:01:11.027Z,101748.81
2019-02-17T18:03:41.461Z,101754.20
2019-02-17T18:06:11.891Z,101752.19
2019-02-17T18:08:42.303Z,101757.88
2019-02-17T18:11:12.744Z,101748.97
2019-02-17T18:13:43.374Z,101747.27
2019-02-17T18:16:13.803Z,101741.84
2019-02-17T18:18:44.237Z,101742.19
2019-02-17T18:21:14.661Z,101737.19
2019-02-17T18:23:45.188Z,101744.89
2019-02-17T18:26:15.928Z,101742.09
2019-02-17T18:28:46.359Z,101744.67
2019-02-17T18:31:16.835Z,101747.68
2019-02-17T18:33:47.308Z,101742.36
2019-02-17T18:36:17.838Z,101745.98
2019-02-17T18:38:48.412Z,101745.70
2019-02-17T18:41:18.903Z,101748.80
2019-02-17T18:43:49.434Z,101759.31
2019-02-17T18:46:19.963Z,101757.05
2019-02-17T18:48:50.494Z,101760.16
2019-02-17T18:51:21.021Z,101758.88
2019-02-17T18:53:51.443Z,101753.70
2019-02-17T18:56:22.084Z,101750.52
2019-02-17T18:58:52.615Z,101751.08
2019-02-17T19:01:23.143Z,101742.64
2019-02-17T19:03:53.588Z,101740.62
2019-02-17T19:06:24.113Z,101743.86
2019-02-17T19:08:54.514Z,101736.30
2019-02-17T19:11:25.269Z,101736.98
2019-02-17T19:13:55.796Z,101745.30
2019-02-17T19:16:27.457Z,101744.81
2019-02-17T19:18:57.989Z,101752.80
2019-02-17T19:21:28.521Z,101752.87
2019-02-17T19:24:00.180Z,101751.24
2019-02-17T19:26:30.603Z,101757.04
2019-02-17T19:29:01.033Z,101748.47
2019-02-17T19:31:31.467Z,101751.25
2019-02-17T19:34:01.997Z,101747.34
2019-02-17T19:36:32.528Z,101747.38
2019-02-17T19:39:04.529Z,101743.52
2019-02-17T19:41:35.013Z,101743.69
2019-02-17T19:44:06.533Z,101745.03
2019-02-17T19:46:38.127Z,101749.77
2019-02-17T19:49:08.657Z,101738.00
2019-02-17T19:51:39.088Z,101745.75
2019-02-17T19:54:09.619Z,101749.45
2019-02-17T19:56:40.166Z,101742.83
2019-02-17T19:59:10.549Z,101740.45
2019-02-17T20:01:41.002Z,101742.16
2019-02-17T20:04:16.139Z,101744.00
2019-02-17T20:06:47.902Z,101752.96
2019-02-17T20:09:18.853Z,101751.08
2019-02-17T20:11:49.257Z,101751.61
2019-02-17T20:14:19.700Z,101746.92
2019-02-17T20:16:50.118Z,101749.13
2019-02-17T20:19:20.550Z,101749.66
2019-02-17T20:21:52.002Z,101752.72
2019-02-17T20:24:22.411Z,101756.27
2019-02-17T20:26:52.855Z,101748.02
2019-02-17T20:29:23.387Z,101753.28
2019-02-17T20:31:53.820Z,101749.75
2019-02-17T20:34:24.253Z,101750.64
2019-02-17T20:36:54.781Z,101750.28
2019-02-17T20:39:25.192Z,101750.49
2019-02-17T20:41:55.665Z,101746.23
2019-02-17T20:44:26.164Z,101737.17
2019-02-17T20:46:56.595Z,101736.81
2019-02-17T20:49:27.126Z,101739.69
2019-02-17T20:51:58.682Z,101736.39
2019-02-17T20:54:29.208Z,101742.89
2019-02-17T20:56:59.642Z,101741.38
2019-02-17T20:59:30.047Z,101740.75
2019-02-17T21:02:00.502Z,101742.45
2019-02-17T21:04:31.023Z,101740.78
2019-02-17T21:07:01.762Z,101738.95
2019-02-17T21:09:32.180Z,101740.47
2019-02-17T21:12:02.714Z,101739.77
2019-02-17T21:14:33.151Z,101739.28
2019-02-17T21:17:04.694Z,101741.82
2019-02-17T21:19:35.127Z,101740.45
2019-02-17T21:22:05.560Z,101733.36
2019-02-17T21:24:35.987Z,101729.48
2019-02-17T21:27:06.410Z,101728.49
2019-02-17T21:29:37.962Z,101736.11
2019-02-17T21:32:08.495Z,101731.06
2019-02-17T21:34:39.024Z,101733.40
2019-02-17T21:37:09.456Z,101735.23
2019-02-17T21:39:39.886Z,101736.75
2019-02-17T21:42:10.416Z,101733.73
2019-02-17T21:44:41.871Z,101734.72
2019-02-17T21:47:12.289Z,101733.34
2019-02-17T21:49:42.721Z,101725.80
2019-02-17T21:52:13.135Z,101726.98
2019-02-17T21:54:43.991Z,101732.00
2019-02-17T21:57:14.526Z,101731.67
2019-02-17T21:59:44.948Z,101732.98
2019-02-17T22:02:15.584Z,101743.62
2019-02-17T22:04:46.117Z,101734.39
2019-02-17T22:07:16.528Z,101734.91
2019-02-17T22:09:46.975Z,101736.77
2019-02-17T22:12:17.497Z,101736.13
2019-02-17T22:14:47.919Z,101732.39
2019-02-17T22:17:18.353Z,101726.02
2019-02-17T22:19:48.899Z,101726.34
2019-02-17T22:22:19.276Z,101721.64
2019-02-17T22:24:49.843Z,101728.03
2019-02-17T22:27:20.373Z,101730.70
2019-02-17T22:29:50.807Z,101735.77
2019-02-17T22:32:21.338Z,101738.45
2019-02-17T22:34:51.755Z,101736.41
2019-02-17T22:37:22.164Z,101736.94
2019-02-17T22:39:52.619Z,101741.14
2019-02-17T22:42:23.038Z,101739.45
2019-02-17T22:44:53.472Z,101741.16
2019-02-17T22:47:23.877Z,101734.59
2019-02-17T22:49:54.327Z,101730.72
2019-02-17T22:52:24.756Z,101725.00
2019-02-17T22:54:55.205Z,101720.11
2019-02-17T22:57:25.721Z,101718.92
2019-02-17T22:59:56.249Z,101720.30
2019-02-17T23:02:27.801Z,101718.09
2019-02-17T23:04:58.331Z,101722.63
2019-02-17T23:07:28.764Z,101721.80
2019-02-17T23:09:59.171Z,101729.71
2019-02-17T23:12:29.615Z,101724.83
2019-02-17T23:15:00.048Z,101726.34
2019-02-17T23:17:30.576Z,101724.99
2019-02-17T23:20:01.109Z,101729.20
2019-02-17T23:22:31.530Z,101731.56
2019-02-17T23:25:02.060Z,101732.58
2019-02-17T23:27:32.701Z,101736.79
2019-02-17T23:30:03.637Z,101738.14
2019-02-17T23:32:34.383Z,101738.63
2019-02-17T23:35:05.702Z,101736.77
2019-02-17T23:37:36.247Z,101735.94
2019-02-17T23:40:11.085Z,101730.03
2019-02-17T23:42:41.608Z,101731.38
2019-02-17T23:45:13.145Z,101730.20
2019-02-17T23:47:43.549Z,101731.03
2019-02-17T23:50:14.792Z,101722.63
2019-02-17T23:52:45.210Z,101716.91
2019-02-17T23:55:15.704Z,101716.89
2019-02-17T23:57:46.232Z,101705.44
